NORTHERN QUEENS  -  Freeze Warning Freeze Warning        SOUTHERN QUEENS  -  Freeze Warning Freeze Warning      

Active alerts

Northern Queens
  Details for Northern Queens Freeze Warning
Southern Queens
  Details for Southern Queens Freeze Warning


WXM80 ListenWXM80 Stop

You find our weather info also at:

UK Metoffice

WeatherCloud

Weather Underground

Northeastern Weather Network

AWEKAS

Citizen Weather Observer Program (CWOP)

HAMweather, WeatherForYou, PWS Weather


Weather Underground History page Text

Daily Summary for January 20, 2018 Units:  Both    English   Metric
« Previous Day
Next Day »
Daily Weekly Monthly Yearly Custom
  High: Low: Average:
Temperature: 53.0 °F /  11.7 °C 31.5 °F /  -0.3 °C 43.1 °F /  6.2 °C
Dew Point: 32.0 °F /  0 °C 23.8 °F /  -4.6 °C 28.6 °F /  -1.9 °C
Humidity: 73 % 43 % 57 %
Wind Speed: 12.0 mph /  19.3 km/h - 5.3 mph /  8.5 km/h
Wind Gust: 22.0 mph /  35.4 km/h - -
Wind:- - SW
Pressure: 29.79 in /  1008.7 hPa 29.58 in /  1001.6 hPa -
Precipitation: 0.00 in /  0 mm    
Historical Graphs
 
 
Tabular Data for January 20, 2018
Time Temperature Dew Point Pressure Wind Wind Speed Wind Gust Humidity Rainfall Rate (Hourly)
00:03 31.5 °F /  -0.3 °C 23.8 °F /  -4.6 °C 29.69 in /  1005.3 hPa SSW 1.5 mph /  2.4 km/h 2.3 mph /  3.7 km/h 73 % 0.00 in /  0 mm
00:08 31.5 °F /  -0.3 °C 23.8 °F /  -4.6 °C 29.68 in /  1005 hPa SW 3.2 mph /  5.1 km/h 6.0 mph /  9.7 km/h 73 % 0.00 in /  0 mm
00:13 31.6 °F /  -0.2 °C 23.9 °F /  -4.5 °C 29.68 in /  1005 hPa Calm   3.5 mph /  5.6 km/h 73 % 0.00 in /  0 mm
00:18 31.7 °F /  -0.2 °C 24.0 °F /  -4.4 °C 29.68 in /  1005 hPa SSW 1.2 mph /  1.9 km/h 3.5 mph /  5.6 km/h 73 % 0.00 in /  0 mm
00:23 31.9 °F /  -0.1 °C 24.2 °F /  -4.3 °C 29.68 in /  1005 hPa SW 2.1 mph /  3.4 km/h 4.6 mph /  7.4 km/h 73 % 0.00 in /  0 mm
00:28 32.0 °F /  0 °C 24.3 °F /  -4.3 °C 29.68 in /  1005 hPa SW 0.3 mph /  0.5 km/h 2.0 mph /  3.2 km/h 73 % 0.00 in /  0 mm
00:33 32.2 °F /  0.1 °C 24.5 °F /  -4.2 °C 29.68 in /  1005 hPa SW 1.8 mph /  2.9 km/h 3.5 mph /  5.6 km/h 73 % 0.00 in /  0 mm
00:38 32.3 °F /  0.2 °C 24.3 °F /  -4.3 °C 29.68 in /  1005 hPa SSW 2.7 mph /  4.3 km/h 5.0 mph /  8 km/h 72 % 0.00 in /  0 mm
00:43 32.4 °F /  0.2 °C 24.4 °F /  -4.2 °C 29.68 in /  1005 hPa SW 0.3 mph /  0.5 km/h 3.5 mph /  5.6 km/h 72 % 0.00 in /  0 mm
00:48 32.5 °F /  0.3 °C 24.5 °F /  -4.2 °C 29.67 in /  1004.6 hPa SSW 1.8 mph /  2.9 km/h 3.5 mph /  5.6 km/h 72 % 0.00 in /  0 mm
00:53 32.6 °F /  0.3 °C 24.6 °F /  -4.1 °C 29.67 in /  1004.6 hPa SSW 2.5 mph /  4 km/h 3.5 mph /  5.6 km/h 72 % 0.00 in /  0 mm
00:58 32.8 °F /  0.4 °C 24.4 °F /  -4.2 °C 29.67 in /  1004.6 hPa South 2.3 mph /  3.7 km/h 4.6 mph /  7.4 km/h 71 % 0.00 in /  0 mm
01:03 32.9 °F /  0.5 °C 24.5 °F /  -4.2 °C 29.67 in /  1004.6 hPa SW 3.0 mph /  4.8 km/h 8.1 mph /  13 km/h 71 % 0.00 in /  0 mm
01:08 33.2 °F /  0.7 °C 24.8 °F /  -4 °C 29.66 in /  1004.3 hPa SW 2.3 mph /  3.7 km/h 4.0 mph /  6.4 km/h 71 % 0.00 in /  0 mm
01:13 33.3 °F /  0.7 °C 24.9 °F /  -3.9 °C 29.67 in /  1004.6 hPa SW 2.6 mph /  4.2 km/h 4.6 mph /  7.4 km/h 71 % 0.00 in /  0 mm
01:18 33.6 °F /  0.9 °C 24.9 °F /  -3.9 °C 29.67 in /  1004.6 hPa SSW 5.4 mph /  8.7 km/h 8.1 mph /  13 km/h 70 % 0.00 in /  0 mm
01:23 33.8 °F /  1 °C 24.7 °F /  -4.1 °C 29.67 in /  1004.6 hPa SW 2.3 mph /  3.7 km/h 4.6 mph /  7.4 km/h 69 % 0.00 in /  0 mm
01:29 34.0 °F /  1.1 °C 24.9 °F /  -3.9 °C 29.67 in /  1004.6 hPa SSW 2.8 mph /  4.5 km/h 5.8 mph /  9.3 km/h 69 % 0.00 in /  0 mm
01:34 34.1 °F /  1.2 °C 24.6 °F /  -4.1 °C 29.67 in /  1004.6 hPa SSW 4.4 mph /  7.1 km/h 5.8 mph /  9.3 km/h 68 % 0.00 in /  0 mm
01:39 34.2 °F /  1.2 °C 24.7 °F /  -4.1 °C 29.67 in /  1004.6 hPa SSW 1.8 mph /  2.9 km/h 4.0 mph /  6.4 km/h 68 % 0.00 in /  0 mm
01:44 34.3 °F /  1.3 °C 24.8 °F /  -4 °C 29.67 in /  1004.6 hPa SSW 4.4 mph /  7.1 km/h 6.9 mph /  11.1 km/h 68 % 0.00 in /  0 mm
01:49 34.4 °F /  1.3 °C 24.9 °F /  -3.9 °C 29.67 in /  1004.6 hPa SSW 1.7 mph /  2.7 km/h 4.0 mph /  6.4 km/h 68 % 0.00 in /  0 mm
01:54 34.4 °F /  1.3 °C 24.9 °F /  -3.9 °C 29.66 in /  1004.3 hPa SW 1.1 mph /  1.8 km/h 6.9 mph /  11.1 km/h 68 % 0.00 in /  0 mm
01:59 34.5 °F /  1.4 °C 24.7 °F /  -4.1 °C 29.65 in /  1003.9 hPa SW 2.7 mph /  4.3 km/h 6.9 mph /  11.1 km/h 67 % 0.00 in /  0 mm
02:04 34.5 °F /  1.4 °C 24.7 °F /  -4.1 °C 29.65 in /  1003.9 hPa SW 4.2 mph /  6.8 km/h 6.9 mph /  11.1 km/h 67 % 0.00 in /  0 mm
02:09 34.6 °F /  1.4 °C 24.8 °F /  -4 °C 29.65 in /  1003.9 hPa SSW 2.4 mph /  3.9 km/h 4.6 mph /  7.4 km/h 67 % 0.00 in /  0 mm
02:14 34.7 °F /  1.5 °C 24.9 °F /  -3.9 °C 29.65 in /  1003.9 hPa SSW 2.4 mph /  3.9 km/h 4.6 mph /  7.4 km/h 67 % 0.00 in /  0 mm
02:19 34.9 °F /  1.6 °C 24.7 °F /  -4.1 °C 29.65 in /  1003.9 hPa SSW 3.7 mph /  6 km/h 6.0 mph /  9.7 km/h 66 % 0.00 in /  0 mm
02:24 35.1 °F /  1.7 °C 24.9 °F /  -3.9 °C 29.65 in /  1003.9 hPa SSW 3.2 mph /  5.1 km/h 5.8 mph /  9.3 km/h 66 % 0.00 in /  0 mm
02:29 35.3 °F /  1.8 °C 24.7 °F /  -4.1 °C 29.65 in /  1003.9 hPa SSW 4.4 mph /  7.1 km/h 7.0 mph /  11.3 km/h 65 % 0.00 in /  0 mm
02:34 35.4 °F /  1.9 °C 24.8 °F /  -4 °C 29.66 in /  1004.3 hPa SW 4.1 mph /  6.6 km/h 6.0 mph /  9.7 km/h 65 % 0.00 in /  0 mm
02:39 35.5 °F /  1.9 °C 24.9 °F /  -3.9 °C 29.66 in /  1004.3 hPa South 4.2 mph /  6.8 km/h 5.8 mph /  9.3 km/h 65 % 0.00 in /  0 mm
02:44 35.7 °F /  2.1 °C 25.1 °F /  -3.8 °C 29.65 in /  1003.9 hPa WSW 4.4 mph /  7.1 km/h 8.0 mph /  12.9 km/h 65 % 0.00 in /  0 mm
02:49 35.8 °F /  2.1 °C 24.8 °F /  -4 °C 29.65 in /  1003.9 hPa SW 6.6 mph /  10.6 km/h 11.5 mph /  18.5 km/h 64 % 0.00 in /  0 mm
02:54 35.8 °F /  2.1 °C 24.8 °F /  -4 °C 29.65 in /  1003.9 hPa SSW 4.3 mph /  6.9 km/h 10.4 mph /  16.7 km/h 64 % 0.00 in /  0 mm
02:59 35.9 °F /  2.2 °C 24.9 °F /  -3.9 °C 29.65 in /  1003.9 hPa SW 5.3 mph /  8.5 km/h 7.0 mph /  11.3 km/h 64 % 0.00 in /  0 mm
03:04 35.9 °F /  2.2 °C 24.9 °F /  -3.9 °C 29.65 in /  1003.9 hPa SW 5.8 mph /  9.3 km/h 9.0 mph /  14.5 km/h 64 % 0.00 in /  0 mm
03:10 36.0 °F /  2.2 °C 25.0 °F /  -3.9 °C 29.64 in /  1003.6 hPa SW 5.9 mph /  9.5 km/h 11.5 mph /  18.5 km/h 64 % 0.00 in /  0 mm
03:15 36.1 °F /  2.3 °C 24.7 °F /  -4.1 °C 29.64 in /  1003.6 hPa SW 4.0 mph /  6.4 km/h 9.2 mph /  14.8 km/h 63 % 0.00 in /  0 mm
03:20 36.3 °F /  2.4 °C 24.9 °F /  -3.9 °C 29.64 in /  1003.6 hPa SSW 6.4 mph /  10.3 km/h 11.5 mph /  18.5 km/h 63 % 0.00 in /  0 mm
03:25 36.4 °F /  2.4 °C 25.0 °F /  -3.9 °C 29.64 in /  1003.6 hPa SW 6.7 mph /  10.8 km/h 12.7 mph /  20.4 km/h 63 % 0.00 in /  0 mm
03:30 36.5 °F /  2.5 °C 24.7 °F /  -4.1 °C 29.63 in /  1003.3 hPa SW 5.9 mph /  9.5 km/h 12.0 mph /  19.3 km/h 62 % 0.00 in /  0 mm
03:35 36.6 °F /  2.6 °C 24.8 °F /  -4 °C 29.62 in /  1002.9 hPa SW 5.5 mph /  8.9 km/h 10.4 mph /  16.7 km/h 62 % 0.00 in /  0 mm
03:40 36.7 °F /  2.6 °C 24.9 °F /  -3.9 °C 29.64 in /  1003.6 hPa SSW 6.2 mph /  10 km/h 12.0 mph /  19.3 km/h 62 % 0.00 in /  0 mm
03:45 36.8 °F /  2.7 °C 24.6 °F /  -4.1 °C 29.64 in /  1003.6 hPa SW 5.0 mph /  8 km/h 12.7 mph /  20.4 km/h 61 % 0.00 in /  0 mm
03:50 36.9 °F /  2.7 °C 24.7 °F /  -4.1 °C 29.63 in /  1003.3 hPa WSW 5.0 mph /  8 km/h 11.5 mph /  18.5 km/h 61 % 0.00 in /  0 mm
03:55 37.0 °F /  2.8 °C 24.8 °F /  -4 °C 29.63 in /  1003.3 hPa SSW 5.8 mph /  9.3 km/h 9.2 mph /  14.8 km/h 61 % 0.00 in /  0 mm
04:00 37.1 °F /  2.8 °C 24.9 °F /  -3.9 °C 29.64 in /  1003.6 hPa SW 7.1 mph /  11.4 km/h 10.4 mph /  16.7 km/h 61 % 0.00 in /  0 mm
04:05 37.3 °F /  2.9 °C 25.1 °F /  -3.8 °C 29.63 in /  1003.3 hPa SW 9.1 mph /  14.6 km/h 12.7 mph /  20.4 km/h 61 % 0.00 in /  0 mm
04:10 37.4 °F /  3 °C 24.8 °F /  -4 °C 29.63 in /  1003.3 hPa South 6.4 mph /  10.3 km/h 10.4 mph /  16.7 km/h 60 % 0.00 in /  0 mm
04:15 37.5 °F /  3.1 °C 24.9 °F /  -3.9 °C 29.62 in /  1002.9 hPa SSW 7.8 mph /  12.6 km/h 16.1 mph /  25.9 km/h 60 % 0.00 in /  0 mm
04:20 37.6 °F /  3.1 °C 25.0 °F /  -3.9 °C 29.62 in /  1002.9 hPa WSW 6.5 mph /  10.5 km/h 9.2 mph /  14.8 km/h 60 % 0.00 in /  0 mm
04:25 37.7 °F /  3.2 °C 25.1 °F /  -3.8 °C 29.63 in /  1003.3 hPa SW 6.0 mph /  9.7 km/h 14.0 mph /  22.5 km/h 60 % 0.00 in /  0 mm
04:30 37.8 °F /  3.2 °C 25.1 °F /  -3.8 °C 29.63 in /  1003.3 hPa SW 6.0 mph /  9.7 km/h 12.0 mph /  19.3 km/h 60 % 0.00 in /  0 mm
04:35 37.9 °F /  3.3 °C 24.8 °F /  -4 °C 29.63 in /  1003.3 hPa SW 6.0 mph /  9.7 km/h 13.0 mph /  20.9 km/h 59 % 0.00 in /  0 mm
04:40 38.0 °F /  3.3 °C 24.9 °F /  -3.9 °C 29.62 in /  1002.9 hPa SW 6.0 mph /  9.7 km/h 14.0 mph /  22.5 km/h 59 % 0.00 in /  0 mm
04:45 38.1 °F /  3.4 °C 25.0 °F /  -3.9 °C 29.62 in /  1002.9 hPa SW 6.0 mph /  9.7 km/h 12.0 mph /  19.3 km/h 59 % 0.00 in /  0 mm
04:50 38.2 °F /  3.4 °C 25.1 °F /  -3.8 °C 29.62 in /  1002.9 hPa SSW 3.3 mph /  5.3 km/h 11.5 mph /  18.5 km/h 59 % 0.00 in /  0 mm
04:55 38.2 °F /  3.4 °C 25.1 °F /  -3.8 °C 29.61 in /  1002.6 hPa SW 7.0 mph /  11.3 km/h 14.0 mph /  22.5 km/h 59 % 0.00 in /  0 mm
05:01 38.3 °F /  3.5 °C 25.2 °F /  -3.8 °C 29.61 in /  1002.6 hPa South 5.4 mph /  8.7 km/h 12.7 mph /  20.4 km/h 59 % 0.00 in /  0 mm
05:06 38.4 °F /  3.6 °C 25.3 °F /  -3.7 °C 29.61 in /  1002.6 hPa SW 8.4 mph /  13.5 km/h 13.8 mph /  22.2 km/h 59 % 0.00 in /  0 mm
05:11 38.5 °F /  3.6 °C 25.4 °F /  -3.7 °C 29.61 in /  1002.6 hPa SW 9.4 mph /  15.1 km/h 13.8 mph /  22.2 km/h 59 % 0.00 in /  0 mm
05:16 38.6 °F /  3.7 °C 25.5 °F /  -3.6 °C 29.61 in /  1002.6 hPa SW 5.5 mph /  8.9 km/h 13.8 mph /  22.2 km/h 59 % 0.00 in /  0 mm
05:21 38.6 °F /  3.7 °C 25.1 °F /  -3.8 °C 29.61 in /  1002.6 hPa WSW 6.7 mph /  10.8 km/h 16.1 mph /  25.9 km/h 58 % 0.00 in /  0 mm
05:26 38.7 °F /  3.7 °C 25.2 °F /  -3.8 °C 29.61 in /  1002.6 hPa SSW 6.2 mph /  10 km/h 9.2 mph /  14.8 km/h 58 % 0.00 in /  0 mm
05:31 38.8 °F /  3.8 °C 25.3 °F /  -3.7 °C 29.60 in /  1002.3 hPa SW 7.7 mph /  12.4 km/h 13.8 mph /  22.2 km/h 58 % 0.00 in /  0 mm
05:36 38.8 °F /  3.8 °C 25.3 °F /  -3.7 °C 29.61 in /  1002.6 hPa SSW 7.1 mph /  11.4 km/h 10.4 mph /  16.7 km/h 58 % 0.00 in /  0 mm
05:41 38.9 °F /  3.8 °C 25.4 °F /  -3.7 °C 29.61 in /  1002.6 hPa SW 7.9 mph /  12.7 km/h 13.0 mph /  20.9 km/h 58 % 0.00 in /  0 mm
05:46 38.9 °F /  3.8 °C 25.4 °F /  -3.7 °C 29.61 in /  1002.6 hPa SSW 7.2 mph /  11.6 km/h 11.5 mph /  18.5 km/h 58 % 0.00 in /  0 mm
05:51 39.1 °F /  3.9 °C 25.6 °F /  -3.6 °C 29.61 in /  1002.6 hPa South 9.8 mph /  15.8 km/h 13.8 mph /  22.2 km/h 58 % 0.00 in /  0 mm
05:56 39.2 °F /  4 °C 25.6 °F /  -3.6 °C 29.60 in /  1002.3 hPa SSW 7.5 mph /  12.1 km/h 15.0 mph /  24.1 km/h 58 % 0.00 in /  0 mm
06:01 39.3 °F /  4.1 °C 25.7 °F /  -3.5 °C 29.61 in /  1002.6 hPa SSW 9.5 mph /  15.3 km/h 13.8 mph /  22.2 km/h 58 % 0.00 in /  0 mm
06:06 39.3 °F /  4.1 °C 25.7 °F /  -3.5 °C 29.60 in /  1002.3 hPa SSW 7.7 mph /  12.4 km/h 11.5 mph /  18.5 km/h 58 % 0.00 in /  0 mm
06:11 39.3 °F /  4.1 °C 25.7 °F /  -3.5 °C 29.60 in /  1002.3 hPa West 7.7 mph /  12.4 km/h 15.0 mph /  24.1 km/h 58 % 0.00 in /  0 mm
06:16 39.3 °F /  4.1 °C 25.7 °F /  -3.5 °C 29.60 in /  1002.3 hPa SSW 9.0 mph /  14.5 km/h 15.0 mph /  24.1 km/h 58 % 0.00 in /  0 mm
06:21 39.3 °F /  4.1 °C 25.7 °F /  -3.5 °C 29.60 in /  1002.3 hPa SW 9.1 mph /  14.6 km/h 11.5 mph /  18.5 km/h 58 % 0.00 in /  0 mm
06:26 39.3 °F /  4.1 °C 25.7 °F /  -3.5 °C 29.59 in /  1001.9 hPa SW 8.9 mph /  14.3 km/h 12.7 mph /  20.4 km/h 58 % 0.00 in /  0 mm
06:31 39.2 °F /  4 °C 25.6 °F /  -3.6 °C 29.59 in /  1001.9 hPa SW 8.5 mph /  13.7 km/h 12.7 mph /  20.4 km/h 58 % 0.00 in /  0 mm
06:37 39.2 °F /  4 °C 25.6 °F /  -3.6 °C 29.60 in /  1002.3 hPa SSW 9.3 mph /  15 km/h 15.0 mph /  24.1 km/h 58 % 0.00 in /  0 mm
06:42 39.1 °F /  3.9 °C 25.6 °F /  -3.6 °C 29.59 in /  1001.9 hPa WSW 9.8 mph /  15.8 km/h 13.8 mph /  22.2 km/h 58 % 0.00 in /  0 mm
06:47 39.1 °F /  3.9 °C 25.6 °F /  -3.6 °C 29.59 in /  1001.9 hPa SW 8.1 mph /  13 km/h 12.0 mph /  19.3 km/h 58 % 0.00 in /  0 mm
06:52 39.0 °F /  3.9 °C 25.9 °F /  -3.4 °C 29.59 in /  1001.9 hPa WSW 8.4 mph /  13.5 km/h 11.5 mph /  18.5 km/h 59 % 0.00 in /  0 mm
06:57 39.0 °F /  3.9 °C 25.9 °F /  -3.4 °C 29.59 in /  1001.9 hPa SSW 5.8 mph /  9.3 km/h 11.5 mph /  18.5 km/h 59 % 0.00 in /  0 mm
07:02 38.9 °F /  3.8 °C 25.8 °F /  -3.4 °C 29.60 in /  1002.3 hPa SW 7.3 mph /  11.7 km/h 18.4 mph /  29.6 km/h 59 % 0.00 in /  0 mm
07:07 38.8 °F /  3.8 °C 25.7 °F /  -3.5 °C 29.60 in /  1002.3 hPa SW 6.3 mph /  10.1 km/h 13.8 mph /  22.2 km/h 59 % 0.00 in /  0 mm
07:12 38.7 °F /  3.7 °C 26.0 °F /  -3.3 °C 29.60 in /  1002.3 hPa SW 6.6 mph /  10.6 km/h 12.0 mph /  19.3 km/h 60 % 0.00 in /  0 mm
07:17 38.7 °F /  3.7 °C 26.0 °F /  -3.3 °C 29.60 in /  1002.3 hPa SSW 8.9 mph /  14.3 km/h 16.1 mph /  25.9 km/h 60 % 0.00 in /  0 mm
07:22 38.6 °F /  3.7 °C 25.9 °F /  -3.4 °C 29.60 in /  1002.3 hPa WSW 7.6 mph /  12.2 km/h 17.3 mph /  27.8 km/h 60 % 0.00 in /  0 mm
07:27 38.6 °F /  3.7 °C 25.9 °F /  -3.4 °C 29.60 in /  1002.3 hPa SW 10.2 mph /  16.4 km/h 17.3 mph /  27.8 km/h 60 % 0.00 in /  0 mm
07:32 38.7 °F /  3.7 °C 26.0 °F /  -3.3 °C 29.60 in /  1002.3 hPa SSW 9.8 mph /  15.8 km/h 13.8 mph /  22.2 km/h 60 % 0.00 in /  0 mm
07:37 38.7 °F /  3.7 °C 26.0 °F /  -3.3 °C 29.61 in /  1002.6 hPa SW 6.5 mph /  10.5 km/h 12.7 mph /  20.4 km/h 60 % 0.00 in /  0 mm
07:42 38.8 °F /  3.8 °C 26.1 °F /  -3.3 °C 29.61 in /  1002.6 hPa WSW 7.9 mph /  12.7 km/h 10.4 mph /  16.7 km/h 60 % 0.00 in /  0 mm
07:47 38.9 °F /  3.8 °C 26.2 °F /  -3.2 °C 29.61 in /  1002.6 hPa West 8.2 mph /  13.2 km/h 11.5 mph /  18.5 km/h 60 % 0.00 in /  0 mm
07:52 39.0 °F /  3.9 °C 26.3 °F /  -3.2 °C 29.61 in /  1002.6 hPa South 10.1 mph /  16.3 km/h 18.4 mph /  29.6 km/h 60 % 0.00 in /  0 mm
07:57 39.1 °F /  3.9 °C 26.0 °F /  -3.3 °C 29.61 in /  1002.6 hPa SW 6.7 mph /  10.8 km/h 9.2 mph /  14.8 km/h 59 % 0.00 in /  0 mm
08:02 39.2 °F /  4 °C 26.5 °F /  -3.1 °C 29.61 in /  1002.6 hPa WSW 7.1 mph /  11.4 km/h 11.5 mph /  18.5 km/h 60 % 0.00 in /  0 mm
08:07 39.4 °F /  4.1 °C 26.2 °F /  -3.2 °C 29.61 in /  1002.6 hPa SSW 8.1 mph /  13 km/h 8.1 mph /  13 km/h 59 % 0.00 in /  0 mm
08:13 39.5 °F /  4.2 °C 26.3 °F /  -3.2 °C 29.61 in /  1002.6 hPa WSW 7.3 mph /  11.7 km/h 13.8 mph /  22.2 km/h 59 % 0.00 in /  0 mm
08:18 39.7 °F /  4.3 °C 26.5 °F /  -3.1 °C 29.61 in /  1002.6 hPa SSW 6.3 mph /  10.1 km/h 9.2 mph /  14.8 km/h 59 % 0.00 in /  0 mm
08:23 39.9 °F /  4.4 °C 26.7 °F /  -2.9 °C 29.61 in /  1002.6 hPa West 6.2 mph /  10 km/h 16.0 mph /  25.7 km/h 59 % 0.00 in /  0 mm
08:28 40.2 °F /  4.6 °C 26.6 °F /  -3 °C 29.61 in /  1002.6 hPa SSW 8.2 mph /  13.2 km/h 15.0 mph /  24.1 km/h 58 % 0.00 in /  0 mm
08:33 40.5 °F /  4.7 °C 26.9 °F /  -2.8 °C 29.61 in /  1002.6 hPa WSW 11.2 mph /  18 km/h 17.0 mph /  27.4 km/h 58 % 0.00 in /  0 mm
08:38 40.7 °F /  4.8 °C 27.1 °F /  -2.7 °C 29.61 in /  1002.6 hPa SW 6.1 mph /  9.8 km/h 15.0 mph /  24.1 km/h 58 % 0.00 in /  0 mm
08:43 41.0 °F /  5 °C 27.3 °F /  -2.6 °C 29.62 in /  1002.9 hPa SW 10.6 mph /  17.1 km/h 19.6 mph /  31.5 km/h 58 % 0.00 in /  0 mm
08:48 41.3 °F /  5.2 °C 27.2 °F /  -2.7 °C 29.61 in /  1002.6 hPa SW 7.2 mph /  11.6 km/h 11.5 mph /  18.5 km/h 57 % 0.00 in /  0 mm
08:53 41.6 °F /  5.3 °C 27.5 °F /  -2.5 °C 29.62 in /  1002.9 hPa SSW 9.7 mph /  15.6 km/h 16.1 mph /  25.9 km/h 57 % 0.00 in /  0 mm
08:58 41.9 °F /  5.5 °C 27.8 °F /  -2.3 °C 29.62 in /  1002.9 hPa WSW 8.1 mph /  13 km/h 13.8 mph /  22.2 km/h 57 % 0.00 in /  0 mm
09:03 42.3 °F /  5.7 °C 27.7 °F /  -2.4 °C 29.62 in /  1002.9 hPa SSW 9.8 mph /  15.8 km/h 16.1 mph /  25.9 km/h 56 % 0.00 in /  0 mm
09:08 42.7 °F /  5.9 °C 28.1 °F /  -2.2 °C 29.62 in /  1002.9 hPa SW 8.6 mph /  13.8 km/h 17.3 mph /  27.8 km/h 56 % 0.00 in /  0 mm
09:13 43.2 °F /  6.2 °C 28.5 °F /  -1.9 °C 29.63 in /  1003.3 hPa WSW 9.2 mph /  14.8 km/h 13.8 mph /  22.2 km/h 56 % 0.00 in /  0 mm
09:18 43.7 °F /  6.5 °C 28.6 °F /  -1.9 °C 29.63 in /  1003.3 hPa SSW 6.8 mph /  10.9 km/h 11.5 mph /  18.5 km/h 55 % 0.00 in /  0 mm
09:23 44.4 °F /  6.9 °C 29.2 °F /  -1.6 °C 29.63 in /  1003.3 hPa SW 8.6 mph /  13.8 km/h 12.7 mph /  20.4 km/h 55 % 0.00 in /  0 mm
09:28 45.1 °F /  7.3 °C 29.4 °F /  -1.4 °C 29.63 in /  1003.3 hPa WSW 7.9 mph /  12.7 km/h 15.0 mph /  24.1 km/h 54 % 0.00 in /  0 mm
09:33 45.8 °F /  7.7 °C 29.6 °F /  -1.3 °C 29.64 in /  1003.6 hPa SW 7.9 mph /  12.7 km/h 18.4 mph /  29.6 km/h 53 % 0.00 in /  0 mm
09:38 46.4 °F /  8 °C 29.7 °F /  -1.3 °C 29.64 in /  1003.6 hPa SSW 9.5 mph /  15.3 km/h 15.0 mph /  24.1 km/h 52 % 0.00 in /  0 mm
09:44 46.8 °F /  8.2 °C 29.6 °F /  -1.3 °C 29.64 in /  1003.6 hPa WSW 2.9 mph /  4.7 km/h 9.0 mph /  14.5 km/h 51 % 0.00 in /  0 mm
09:49 47.2 °F /  8.4 °C 30.0 °F /  -1.1 °C 29.64 in /  1003.6 hPa SW 7.2 mph /  11.6 km/h 13.8 mph /  22.2 km/h 51 % 0.00 in /  0 mm
09:54 47.5 °F /  8.6 °C 29.8 °F /  -1.2 °C 29.64 in /  1003.6 hPa West 6.6 mph /  10.6 km/h 9.2 mph /  14.8 km/h 50 % 0.00 in /  0 mm
09:55 47.6 °F /  8.7 °C 29.9 °F /  -1.2 °C 29.64 in /  1003.6 hPa WSW 6.2 mph /  10 km/h 11.5 mph /  18.5 km/h 50 % 0.00 in /  0 mm
10:01 47.7 °F /  8.7 °C 29.5 °F /  -1.4 °C 29.64 in /  1003.6 hPa SSW 9.7 mph /  15.6 km/h 20.7 mph /  33.3 km/h 49 % 0.00 in /  0 mm
10:06 47.9 °F /  8.8 °C 29.6 °F /  -1.3 °C 29.64 in /  1003.6 hPa SW 7.0 mph /  11.3 km/h 21.0 mph /  33.8 km/h 49 % 0.00 in /  0 mm
10:11 48.2 °F /  9 °C 29.9 °F /  -1.2 °C 29.64 in /  1003.6 hPa SSW 9.2 mph /  14.8 km/h 17.3 mph /  27.8 km/h 49 % 0.00 in /  0 mm
10:16 48.4 °F /  9.1 °C 30.1 °F /  -1.1 °C 29.64 in /  1003.6 hPa WSW 7.0 mph /  11.3 km/h 17.0 mph /  27.4 km/h 49 % 0.00 in /  0 mm
10:21 48.8 °F /  9.3 °C 30.4 °F /  -0.9 °C 29.64 in /  1003.6 hPa SW 10.0 mph /  16.1 km/h 21.0 mph /  33.8 km/h 49 % 0.00 in /  0 mm
10:26 49.0 °F /  9.4 °C 30.1 °F /  -1.1 °C 29.64 in /  1003.6 hPa SW 7.7 mph /  12.4 km/h 11.5 mph /  18.5 km/h 48 % 0.00 in /  0 mm
10:31 49.3 °F /  9.6 °C 29.9 °F /  -1.2 °C 29.64 in /  1003.6 hPa SW 8.0 mph /  12.9 km/h 13.0 mph /  20.9 km/h 47 % 0.00 in /  0 mm
10:36 49.5 °F /  9.7 °C 30.1 °F /  -1.1 °C 29.63 in /  1003.3 hPa WSW 7.0 mph /  11.3 km/h 13.0 mph /  20.9 km/h 47 % 0.00 in /  0 mm
10:41 49.7 °F /  9.8 °C 30.3 °F /  -0.9 °C 29.63 in /  1003.3 hPa SW 8.0 mph /  12.9 km/h 20.0 mph /  32.2 km/h 47 % 0.00 in /  0 mm
10:46 49.9 °F /  9.9 °C 30.5 °F /  -0.8 °C 29.63 in /  1003.3 hPa SW 8.0 mph /  12.9 km/h 17.0 mph /  27.4 km/h 47 % 0.00 in /  0 mm
10:51 49.9 °F /  9.9 °C 29.9 °F /  -1.2 °C 29.63 in /  1003.3 hPa WSW 9.0 mph /  14.5 km/h 18.0 mph /  29 km/h 46 % 0.00 in /  0 mm
10:56 50.0 °F /  10 °C 30.5 °F /  -0.8 °C 29.63 in /  1003.3 hPa SW 10.0 mph /  16.1 km/h 22.0 mph /  35.4 km/h 47 % 0.00 in /  0 mm
11:01 49.9 °F /  9.9 °C 29.9 °F /  -1.2 °C 29.62 in /  1002.9 hPa WSW 9.3 mph /  15 km/h 16.1 mph /  25.9 km/h 46 % 0.00 in /  0 mm
11:06 49.9 °F /  9.9 °C 30.5 °F /  -0.8 °C 29.63 in /  1003.3 hPa WSW 7.0 mph /  11.3 km/h 16.0 mph /  25.7 km/h 47 % 0.00 in /  0 mm
11:11 49.9 °F /  9.9 °C 30.5 °F /  -0.8 °C 29.62 in /  1002.9 hPa WSW 6.0 mph /  9.7 km/h 16.0 mph /  25.7 km/h 47 % 0.00 in /  0 mm
11:16 49.8 °F /  9.9 °C 29.8 °F /  -1.2 °C 29.62 in /  1002.9 hPa WSW 9.0 mph /  14.5 km/h 22.0 mph /  35.4 km/h 46 % 0.00 in /  0 mm
11:21 49.6 °F /  9.8 °C 30.2 °F /  -1 °C 29.62 in /  1002.9 hPa WSW 12.0 mph /  19.3 km/h 20.0 mph /  32.2 km/h 47 % 0.00 in /  0 mm
11:26 49.4 °F /  9.7 °C 30.0 °F /  -1.1 °C 29.62 in /  1002.9 hPa WSW 6.0 mph /  9.7 km/h 16.0 mph /  25.7 km/h 47 % 0.00 in /  0 mm
11:31 49.4 °F /  9.7 °C 30.0 °F /  -1.1 °C 29.61 in /  1002.6 hPa WSW 8.0 mph /  12.9 km/h 15.0 mph /  24.1 km/h 47 % 0.00 in /  0 mm
11:36 49.3 °F /  9.6 °C 29.9 °F /  -1.2 °C 29.61 in /  1002.6 hPa WSW 10.0 mph /  16.1 km/h 18.0 mph /  29 km/h 47 % 0.00 in /  0 mm
11:41 49.3 °F /  9.6 °C 29.9 °F /  -1.2 °C 29.60 in /  1002.3 hPa WSW 7.0 mph /  11.3 km/h 17.0 mph /  27.4 km/h 47 % 0.00 in /  0 mm
11:46 49.3 °F /  9.6 °C 29.9 °F /  -1.2 °C 29.60 in /  1002.3 hPa SW 7.3 mph /  11.7 km/h 19.6 mph /  31.5 km/h 47 % 0.00 in /  0 mm
11:51 49.4 °F /  9.7 °C 30.5 °F /  -0.8 °C 29.60 in /  1002.3 hPa WSW 6.0 mph /  9.7 km/h 14.0 mph /  22.5 km/h 48 % 0.00 in /  0 mm
11:56 49.5 °F /  9.7 °C 30.1 °F /  -1.1 °C 29.59 in /  1001.9 hPa WSW 6.6 mph /  10.6 km/h 16.1 mph /  25.9 km/h 47 % 0.00 in /  0 mm
12:01 49.7 °F /  9.8 °C 30.8 °F /  -0.7 °C 29.59 in /  1001.9 hPa WSW 4.0 mph /  6.4 km/h 13.8 mph /  22.2 km/h 48 % 0.00 in /  0 mm
12:06 49.8 °F /  9.9 °C 30.4 °F /  -0.9 °C 29.59 in /  1001.9 hPa WSW 8.0 mph /  12.9 km/h 20.0 mph /  32.2 km/h 47 % 0.00 in /  0 mm
12:11 50.0 °F /  10 °C 30.5 °F /  -0.8 °C 29.59 in /  1001.9 hPa WSW 9.0 mph /  14.5 km/h 18.0 mph /  29 km/h 47 % 0.00 in /  0 mm
12:16 50.1 °F /  10.1 °C 30.6 °F /  -0.8 °C 29.59 in /  1001.9 hPa WSW 6.0 mph /  9.7 km/h 17.0 mph /  27.4 km/h 47 % 0.00 in /  0 mm
12:21 50.3 °F /  10.2 °C 30.8 °F /  -0.7 °C 29.59 in /  1001.9 hPa WSW 6.0 mph /  9.7 km/h 18.0 mph /  29 km/h 47 % 0.00 in /  0 mm
12:26 50.5 °F /  10.3 °C 31.0 °F /  -0.6 °C 29.59 in /  1001.9 hPa WSW 8.0 mph /  12.9 km/h 17.0 mph /  27.4 km/h 47 % 0.00 in /  0 mm
12:31 50.8 °F /  10.4 °C 31.3 °F /  -0.4 °C 29.59 in /  1001.9 hPa WNW 7.8 mph /  12.6 km/h 9.0 mph /  14.5 km/h 47 % 0.00 in /  0 mm
12:36 51.1 °F /  10.6 °C 31.6 °F /  -0.2 °C 29.58 in /  1001.6 hPa WSW 9.0 mph /  14.5 km/h 18.0 mph /  29 km/h 47 % 0.00 in /  0 mm
12:41 51.4 °F /  10.8 °C 31.3 °F /  -0.4 °C 29.58 in /  1001.6 hPa WSW 5.9 mph /  9.5 km/h 10.4 mph /  16.7 km/h 46 % 0.00 in /  0 mm
12:46 51.7 °F /  10.9 °C 31.6 °F /  -0.2 °C 29.58 in /  1001.6 hPa WSW 5.0 mph /  8 km/h 13.0 mph /  20.9 km/h 46 % 0.00 in /  0 mm
12:51 51.9 °F /  11.1 °C 31.2 °F /  -0.4 °C 29.58 in /  1001.6 hPa West 8.0 mph /  12.9 km/h 20.0 mph /  32.2 km/h 45 % 0.00 in /  0 mm
12:56 52.2 °F /  11.2 °C 32.0 °F /  0 °C 29.58 in /  1001.6 hPa West 6.5 mph /  10.5 km/h 17.3 mph /  27.8 km/h 46 % 0.00 in /  0 mm
13:01 52.3 °F /  11.3 °C 31.6 °F /  -0.2 °C 29.58 in /  1001.6 hPa West 7.1 mph /  11.4 km/h 11.5 mph /  18.5 km/h 45 % 0.00 in /  0 mm
13:06 52.3 °F /  11.3 °C 31.0 °F /  -0.6 °C 29.58 in /  1001.6 hPa WSW 4.2 mph /  6.8 km/h 13.8 mph /  22.2 km/h 44 % 0.00 in /  0 mm
13:11 52.3 °F /  11.3 °C 31.6 °F /  -0.2 °C 29.58 in /  1001.6 hPa SW 6.7 mph /  10.8 km/h 12.7 mph /  20.4 km/h 45 % 0.00 in /  0 mm
13:16 52.4 °F /  11.3 °C 31.7 °F /  -0.2 °C 29.58 in /  1001.6 hPa West 3.8 mph /  6.1 km/h 12.7 mph /  20.4 km/h 45 % 0.00 in /  0 mm
13:21 52.4 °F /  11.3 °C 31.1 °F /  -0.5 °C 29.58 in /  1001.6 hPa WNW 5.6 mph /  9 km/h 11.5 mph /  18.5 km/h 44 % 0.00 in /  0 mm
13:26 52.5 °F /  11.4 °C 31.2 °F /  -0.4 °C 29.58 in /  1001.6 hPa West 6.0 mph /  9.7 km/h 11.5 mph /  18.5 km/h 44 % 0.00 in /  0 mm
13:31 52.6 °F /  11.4 °C 31.3 °F /  -0.4 °C 29.58 in /  1001.6 hPa WNW 3.9 mph /  6.3 km/h 10.0 mph /  16.1 km/h 44 % 0.00 in /  0 mm
13:36 52.7 °F /  11.5 °C 31.4 °F /  -0.3 °C 29.58 in /  1001.6 hPa West 5.6 mph /  9 km/h 9.2 mph /  14.8 km/h 44 % 0.00 in /  0 mm
13:41 52.8 °F /  11.6 °C 31.5 °F /  -0.3 °C 29.59 in /  1001.9 hPa SW 6.7 mph /  10.8 km/h 13.8 mph /  22.2 km/h 44 % 0.00 in /  0 mm
13:46 52.8 °F /  11.6 °C 30.9 °F /  -0.6 °C 29.59 in /  1001.9 hPa WSW 4.7 mph /  7.6 km/h 14.0 mph /  22.5 km/h 43 % 0.00 in /  0 mm
13:51 52.9 °F /  11.6 °C 31.6 °F /  -0.2 °C 29.58 in /  1001.6 hPa WSW 8.4 mph /  13.5 km/h 14.0 mph /  22.5 km/h 44 % 0.00 in /  0 mm
13:56 53.0 °F /  11.7 °C 31.1 °F /  -0.5 °C 29.59 in /  1001.9 hPa SW 2.7 mph /  4.3 km/h 8.1 mph /  13 km/h 43 % 0.00 in /  0 mm
14:01 53.0 °F /  11.7 °C 31.1 °F /  -0.5 °C 29.59 in /  1001.9 hPa WNW 7.8 mph /  12.6 km/h 10.4 mph /  16.7 km/h 43 % 0.00 in /  0 mm
14:06 52.8 °F /  11.6 °C 30.9 °F /  -0.6 °C 29.59 in /  1001.9 hPa SW 4.7 mph /  7.6 km/h 9.2 mph /  14.8 km/h 43 % 0.00 in /  0 mm
14:11 52.7 °F /  11.5 °C 31.4 °F /  -0.3 °C 29.60 in /  1002.3 hPa WSW 4.8 mph /  7.7 km/h 13.0 mph /  20.9 km/h 44 % 0.00 in /  0 mm
14:16 52.7 °F /  11.5 °C 31.4 °F /  -0.3 °C 29.60 in /  1002.3 hPa WSW 6.0 mph /  9.7 km/h 11.5 mph /  18.5 km/h 44 % 0.00 in /  0 mm
14:21 52.6 °F /  11.4 °C 31.3 °F /  -0.4 °C 29.61 in /  1002.6 hPa West 4.7 mph /  7.6 km/h 14.0 mph /  22.5 km/h 44 % 0.00 in /  0 mm
14:26 52.5 °F /  11.4 °C 31.2 °F /  -0.4 °C 29.61 in /  1002.6 hPa WSW 4.3 mph /  6.9 km/h 7.0 mph /  11.3 km/h 44 % 0.00 in /  0 mm
14:31 52.3 °F /  11.3 °C 31.0 °F /  -0.6 °C 29.61 in /  1002.6 hPa WSW 8.3 mph /  13.4 km/h 11.5 mph /  18.5 km/h 44 % 0.00 in /  0 mm
14:36 52.1 °F /  11.2 °C 30.8 °F /  -0.7 °C 29.60 in /  1002.3 hPa WSW 5.0 mph /  8 km/h 11.5 mph /  18.5 km/h 44 % 0.00 in /  0 mm
14:41 52.0 °F /  11.1 °C 31.3 °F /  -0.4 °C 29.61 in /  1002.6 hPa WSW 6.5 mph /  10.5 km/h 8.1 mph /  13 km/h 45 % 0.00 in /  0 mm
14:46 51.8 °F /  11 °C 31.1 °F /  -0.5 °C 29.60 in /  1002.3 hPa WNW 8.8 mph /  14.2 km/h 11.5 mph /  18.5 km/h 45 % 0.00 in /  0 mm
14:51 51.6 °F /  10.9 °C 30.9 °F /  -0.6 °C 29.60 in /  1002.3 hPa West 4.4 mph /  7.1 km/h 12.7 mph /  20.4 km/h 45 % 0.00 in /  0 mm
14:57 51.3 °F /  10.7 °C 31.2 °F /  -0.4 °C 29.61 in /  1002.6 hPa WNW 3.7 mph /  6 km/h 9.2 mph /  14.8 km/h 46 % 0.00 in /  0 mm
15:02 51.1 °F /  10.6 °C 31.0 °F /  -0.6 °C 29.61 in /  1002.6 hPa WSW 4.0 mph /  6.4 km/h 9.2 mph /  14.8 km/h 46 % 0.00 in /  0 mm
15:07 50.8 °F /  10.4 °C 30.7 °F /  -0.7 °C 29.61 in /  1002.6 hPa WSW 5.1 mph /  8.2 km/h 9.2 mph /  14.8 km/h 46 % 0.00 in /  0 mm
15:12 50.6 °F /  10.3 °C 31.1 °F /  -0.5 °C 29.62 in /  1002.9 hPa WNW 3.2 mph /  5.1 km/h 5.8 mph /  9.3 km/h 47 % 0.00 in /  0 mm
15:17 50.3 °F /  10.2 °C 30.8 °F /  -0.7 °C 29.62 in /  1002.9 hPa WSW 4.7 mph /  7.6 km/h 11.5 mph /  18.5 km/h 47 % 0.00 in /  0 mm
15:22 50.0 °F /  10 °C 30.5 °F /  -0.8 °C 29.62 in /  1002.9 hPa WNW 5.3 mph /  8.5 km/h 12.7 mph /  20.4 km/h 47 % 0.00 in /  0 mm
15:27 49.8 °F /  9.9 °C 30.9 °F /  -0.6 °C 29.62 in /  1002.9 hPa SW 5.4 mph /  8.7 km/h 11.5 mph /  18.5 km/h 48 % 0.00 in /  0 mm
15:32 49.4 °F /  9.7 °C 31.0 °F /  -0.6 °C 29.62 in /  1002.9 hPa SW 7.6 mph /  12.2 km/h 11.5 mph /  18.5 km/h 49 % 0.00 in /  0 mm
15:37 49.2 °F /  9.6 °C 30.8 °F /  -0.7 °C 29.62 in /  1002.9 hPa WSW 1.4 mph /  2.3 km/h 5.0 mph /  8 km/h 49 % 0.00 in /  0 mm
15:42 49.0 °F /  9.4 °C 30.7 °F /  -0.7 °C 29.63 in /  1003.3 hPa SW 1.8 mph /  2.9 km/h 7.0 mph /  11.3 km/h 49 % 0.00 in /  0 mm
15:47 48.8 °F /  9.3 °C 31.0 °F /  -0.6 °C 29.63 in /  1003.3 hPa West 4.1 mph /  6.6 km/h 9.2 mph /  14.8 km/h 50 % 0.00 in /  0 mm
15:52 48.6 °F /  9.2 °C 30.8 °F /  -0.7 °C 29.64 in /  1003.6 hPa WSW 7.3 mph /  11.7 km/h 15.0 mph /  24.1 km/h 50 % 0.00 in /  0 mm
15:57 48.5 °F /  9.2 °C 30.7 °F /  -0.7 °C 29.64 in /  1003.6 hPa WSW 4.7 mph /  7.6 km/h 11.5 mph /  18.5 km/h 50 % 0.00 in /  0 mm
16:02 48.3 °F /  9.1 °C 31.0 °F /  -0.6 °C 29.64 in /  1003.6 hPa WSW 5.4 mph /  8.7 km/h 13.8 mph /  22.2 km/h 51 % 0.00 in /  0 mm
16:07 48.1 °F /  8.9 °C 30.8 °F /  -0.7 °C 29.64 in /  1003.6 hPa SSW 5.5 mph /  8.9 km/h 8.1 mph /  13 km/h 51 % 0.00 in /  0 mm
16:12 48.0 °F /  8.9 °C 31.2 °F /  -0.4 °C 29.64 in /  1003.6 hPa West 5.5 mph /  8.9 km/h 9.2 mph /  14.8 km/h 52 % 0.00 in /  0 mm
16:17 47.8 °F /  8.8 °C 31.0 °F /  -0.6 °C 29.64 in /  1003.6 hPa NW 5.2 mph /  8.4 km/h 10.4 mph /  16.7 km/h 52 % 0.00 in /  0 mm
16:22 47.7 °F /  8.7 °C 30.9 °F /  -0.6 °C 29.64 in /  1003.6 hPa WSW 2.8 mph /  4.5 km/h 11.0 mph /  17.7 km/h 52 % 0.00 in /  0 mm
16:27 47.6 °F /  8.7 °C 30.8 °F /  -0.7 °C 29.64 in /  1003.6 hPa WSW 6.7 mph /  10.8 km/h 10.4 mph /  16.7 km/h 52 % 0.00 in /  0 mm
16:32 47.5 °F /  8.6 °C 30.7 °F /  -0.7 °C 29.64 in /  1003.6 hPa WSW 3.4 mph /  5.5 km/h 6.9 mph /  11.1 km/h 52 % 0.00 in /  0 mm
16:37 47.4 °F /  8.6 °C 31.1 °F /  -0.5 °C 29.65 in /  1003.9 hPa West 7.8 mph /  12.6 km/h 12.7 mph /  20.4 km/h 53 % 0.00 in /  0 mm
16:42 47.4 °F /  8.6 °C 31.1 °F /  -0.5 °C 29.65 in /  1003.9 hPa WSW 4.0 mph /  6.4 km/h 6.9 mph /  11.1 km/h 53 % 0.00 in /  0 mm
16:47 47.3 °F /  8.5 °C 31.0 °F /  -0.6 °C 29.65 in /  1003.9 hPa WNW 4.1 mph /  6.6 km/h 10.4 mph /  16.7 km/h 53 % 0.00 in /  0 mm
16:52 47.3 °F /  8.5 °C 31.0 °F /  -0.6 °C 29.66 in /  1004.3 hPa WSW 2.9 mph /  4.7 km/h 5.0 mph /  8 km/h 53 % 0.00 in /  0 mm
16:58 47.2 °F /  8.4 °C 30.9 °F /  -0.6 °C 29.66 in /  1004.3 hPa WSW 6.9 mph /  11.1 km/h 6.9 mph /  11.1 km/h 53 % 0.00 in /  0 mm
17:03 47.1 °F /  8.4 °C 30.8 °F /  -0.7 °C 29.67 in /  1004.6 hPa SW 3.8 mph /  6.1 km/h 10.4 mph /  16.7 km/h 53 % 0.00 in /  0 mm
17:08 47.0 °F /  8.3 °C 31.2 °F /  -0.4 °C 29.66 in /  1004.3 hPa WSW 2.5 mph /  4 km/h 4.6 mph /  7.4 km/h 54 % 0.00 in /  0 mm
17:13 46.8 °F /  8.2 °C 31.0 °F /  -0.6 °C 29.67 in /  1004.6 hPa West 3.4 mph /  5.5 km/h 7.0 mph /  11.3 km/h 54 % 0.00 in /  0 mm
17:18 46.7 °F /  8.2 °C 30.9 °F /  -0.6 °C 29.67 in /  1004.6 hPa WSW 5.9 mph /  9.5 km/h 10.4 mph /  16.7 km/h 54 % 0.00 in /  0 mm
17:23 46.5 °F /  8.1 °C 30.7 °F /  -0.7 °C 29.68 in /  1005 hPa WSW 5.9 mph /  9.5 km/h 9.2 mph /  14.8 km/h 54 % 0.00 in /  0 mm
17:28 46.4 °F /  8 °C 30.6 °F /  -0.8 °C 29.68 in /  1005 hPa WSW 0.5 mph /  0.8 km/h 2.3 mph /  3.7 km/h 54 % 0.00 in /  0 mm
17:33 46.3 °F /  7.9 °C 30.5 °F /  -0.8 °C 29.68 in /  1005 hPa West 3.0 mph /  4.8 km/h 5.8 mph /  9.3 km/h 54 % 0.00 in /  0 mm
17:38 46.2 °F /  7.9 °C 30.9 °F /  -0.6 °C 29.68 in /  1005 hPa West 2.7 mph /  4.3 km/h 7.0 mph /  11.3 km/h 55 % 0.00 in /  0 mm
17:43 46.1 °F /  7.8 °C 30.8 °F /  -0.7 °C 29.68 in /  1005 hPa West 4.4 mph /  7.1 km/h 6.0 mph /  9.7 km/h 55 % 0.00 in /  0 mm
17:48 46.1 °F /  7.8 °C 30.8 °F /  -0.7 °C 29.68 in /  1005 hPa WSW 5.2 mph /  8.4 km/h 11.5 mph /  18.5 km/h 55 % 0.00 in /  0 mm
17:53 46.0 °F /  7.8 °C 30.7 °F /  -0.7 °C 29.68 in /  1005 hPa WSW 5.0 mph /  8 km/h 10.4 mph /  16.7 km/h 55 % 0.00 in /  0 mm
17:58 45.9 °F /  7.7 °C 30.6 °F /  -0.8 °C 29.68 in /  1005 hPa West 6.4 mph /  10.3 km/h 10.4 mph /  16.7 km/h 55 % 0.00 in /  0 mm
18:03 45.8 °F /  7.7 °C 31.0 °F /  -0.6 °C 29.69 in /  1005.3 hPa WSW 6.2 mph /  10 km/h 11.5 mph /  18.5 km/h 56 % 0.00 in /  0 mm
18:08 45.6 °F /  7.6 °C 30.8 °F /  -0.7 °C 29.69 in /  1005.3 hPa WSW 6.7 mph /  10.8 km/h 11.5 mph /  18.5 km/h 56 % 0.00 in /  0 mm
18:13 45.6 °F /  7.6 °C 30.8 °F /  -0.7 °C 29.69 in /  1005.3 hPa West 2.7 mph /  4.3 km/h 7.0 mph /  11.3 km/h 56 % 0.00 in /  0 mm
18:18 45.5 °F /  7.5 °C 30.7 °F /  -0.7 °C 29.69 in /  1005.3 hPa WSW 3.9 mph /  6.3 km/h 8.1 mph /  13 km/h 56 % 0.00 in /  0 mm
18:23 45.4 °F /  7.4 °C 30.6 °F /  -0.8 °C 29.70 in /  1005.6 hPa West 6.7 mph /  10.8 km/h 10.4 mph /  16.7 km/h 56 % 0.00 in /  0 mm
18:28 45.3 °F /  7.4 °C 31.0 °F /  -0.6 °C 29.70 in /  1005.6 hPa West 6.1 mph /  9.8 km/h 12.7 mph /  20.4 km/h 57 % 0.00 in /  0 mm
18:33 45.3 °F /  7.4 °C 31.0 °F /  -0.6 °C 29.71 in /  1006 hPa WSW 4.4 mph /  7.1 km/h 8.1 mph /  13 km/h 57 % 0.00 in /  0 mm
18:38 45.2 °F /  7.3 °C 30.9 °F /  -0.6 °C 29.71 in /  1006 hPa WSW 4.5 mph /  7.2 km/h 11.5 mph /  18.5 km/h 57 % 0.00 in /  0 mm
18:43 45.1 °F /  7.3 °C 30.8 °F /  -0.7 °C 29.71 in /  1006 hPa West 4.3 mph /  6.9 km/h 6.0 mph /  9.7 km/h 57 % 0.00 in /  0 mm
18:48 45.0 °F /  7.2 °C 30.7 °F /  -0.7 °C 29.71 in /  1006 hPa SSW 5.0 mph /  8 km/h 7.0 mph /  11.3 km/h 57 % 0.00 in /  0 mm
18:53 45.0 °F /  7.2 °C 30.7 °F /  -0.7 °C 29.72 in /  1006.3 hPa WNW 4.6 mph /  7.4 km/h 6.9 mph /  11.1 km/h 57 % 0.00 in /  0 mm
18:59 44.9 °F /  7.2 °C 31.0 °F /  -0.6 °C 29.73 in /  1006.7 hPa West 4.4 mph /  7.1 km/h 9.2 mph /  14.8 km/h 58 % 0.00 in /  0 mm
19:04 44.9 °F /  7.2 °C 31.0 °F /  -0.6 °C 29.72 in /  1006.3 hPa West 3.2 mph /  5.1 km/h 8.1 mph /  13 km/h 58 % 0.00 in /  0 mm
19:09 44.9 °F /  7.2 °C 31.0 °F /  -0.6 °C 29.72 in /  1006.3 hPa West 6.3 mph /  10.1 km/h 8.0 mph /  12.9 km/h 58 % 0.00 in /  0 mm
19:14 44.9 °F /  7.2 °C 31.0 °F /  -0.6 °C 29.73 in /  1006.7 hPa WSW 3.7 mph /  6 km/h 6.0 mph /  9.7 km/h 58 % 0.00 in /  0 mm
19:19 44.9 °F /  7.2 °C 31.0 °F /  -0.6 °C 29.73 in /  1006.7 hPa West 3.3 mph /  5.3 km/h 9.2 mph /  14.8 km/h 58 % 0.00 in /  0 mm
19:24 44.8 °F /  7.1 °C 30.9 °F /  -0.6 °C 29.73 in /  1006.7 hPa WSW 6.4 mph /  10.3 km/h 9.2 mph /  14.8 km/h 58 % 0.00 in /  0 mm
19:29 44.9 °F /  7.2 °C 31.0 °F /  -0.6 °C 29.73 in /  1006.7 hPa WSW 5.7 mph /  9.2 km/h 11.5 mph /  18.5 km/h 58 % 0.00 in /  0 mm
19:34 44.9 °F /  7.2 °C 31.0 °F /  -0.6 °C 29.73 in /  1006.7 hPa SW 6.8 mph /  10.9 km/h 11.5 mph /  18.5 km/h 58 % 0.00 in /  0 mm
19:39 44.9 °F /  7.2 °C 31.0 °F /  -0.6 °C 29.73 in /  1006.7 hPa West 8.7 mph /  14 km/h 11.5 mph /  18.5 km/h 58 % 0.00 in /  0 mm
19:44 44.9 °F /  7.2 °C 31.0 °F /  -0.6 °C 29.74 in /  1007 hPa SW 4.1 mph /  6.6 km/h 7.0 mph /  11.3 km/h 58 % 0.00 in /  0 mm
19:49 44.8 °F /  7.1 °C 30.9 °F /  -0.6 °C 29.74 in /  1007 hPa West 1.8 mph /  2.9 km/h 6.9 mph /  11.1 km/h 58 % 0.00 in /  0 mm
19:54 44.7 °F /  7.1 °C 31.2 °F /  -0.4 °C 29.75 in /  1007.3 hPa SW 2.4 mph /  3.9 km/h 6.9 mph /  11.1 km/h 59 % 0.00 in /  0 mm
19:59 44.6 °F /  7 °C 31.1 °F /  -0.5 °C 29.75 in /  1007.3 hPa WSW 4.0 mph /  6.4 km/h 6.9 mph /  11.1 km/h 59 % 0.00 in /  0 mm
20:04 44.5 °F /  6.9 °C 31.1 °F /  -0.5 °C 29.75 in /  1007.3 hPa WSW 3.0 mph /  4.8 km/h 6.9 mph /  11.1 km/h 59 % 0.00 in /  0 mm
20:09 44.4 °F /  6.9 °C 31.0 °F /  -0.6 °C 29.75 in /  1007.3 hPa WSW 4.5 mph /  7.2 km/h 9.2 mph /  14.8 km/h 59 % 0.00 in /  0 mm
20:14 44.3 °F /  6.8 °C 30.9 °F /  -0.6 °C 29.75 in /  1007.3 hPa WSW 3.2 mph /  5.1 km/h 6.9 mph /  11.1 km/h 59 % 0.00 in /  0 mm
20:19 44.2 °F /  6.8 °C 31.2 °F /  -0.4 °C 29.75 in /  1007.3 hPa WSW 3.8 mph /  6.1 km/h 9.2 mph /  14.8 km/h 60 % 0.00 in /  0 mm
20:21 44.2 °F /  6.8 °C 31.2 °F /  -0.4 °C 29.75 in /  1007.3 hPa SW 3.3 mph /  5.3 km/h 8.1 mph /  13 km/h 60 % 0.00 in /  0 mm
20:26 44.1 °F /  6.7 °C 31.1 °F /  -0.5 °C 29.75 in /  1007.3 hPa SW 4.9 mph /  7.9 km/h 9.2 mph /  14.8 km/h 60 % 0.00 in /  0 mm
20:31 44.0 °F /  6.7 °C 31.0 °F /  -0.6 °C 29.75 in /  1007.3 hPa SW 5.6 mph /  9 km/h 7.0 mph /  11.3 km/h 60 % 0.00 in /  0 mm
20:36 44.0 °F /  6.7 °C 31.0 °F /  -0.6 °C 29.75 in /  1007.3 hPa West 3.4 mph /  5.5 km/h 10.4 mph /  16.7 km/h 60 % 0.00 in /  0 mm
20:41 44.0 °F /  6.7 °C 31.0 °F /  -0.6 °C 29.75 in /  1007.3 hPa WSW 5.8 mph /  9.3 km/h 11.5 mph /  18.5 km/h 60 % 0.00 in /  0 mm
20:46 44.0 °F /  6.7 °C 31.0 °F /  -0.6 °C 29.76 in /  1007.7 hPa SW 4.7 mph /  7.6 km/h 8.1 mph /  13 km/h 60 % 0.00 in /  0 mm
20:51 44.0 °F /  6.7 °C 31.0 °F /  -0.6 °C 29.76 in /  1007.7 hPa WSW 5.3 mph /  8.5 km/h 7.0 mph /  11.3 km/h 60 % 0.00 in /  0 mm
20:56 44.0 °F /  6.7 °C 31.0 °F /  -0.6 °C 29.76 in /  1007.7 hPa SW 3.7 mph /  6 km/h 11.5 mph /  18.5 km/h 60 % 0.00 in /  0 mm
21:01 44.0 °F /  6.7 °C 31.0 °F /  -0.6 °C 29.76 in /  1007.7 hPa WSW 6.5 mph /  10.5 km/h 10.4 mph /  16.7 km/h 60 % 0.00 in /  0 mm
21:06 44.0 °F /  6.7 °C 31.0 °F /  -0.6 °C 29.76 in /  1007.7 hPa WSW 3.8 mph /  6.1 km/h 6.9 mph /  11.1 km/h 60 % 0.00 in /  0 mm
21:11 43.9 °F /  6.6 °C 30.9 °F /  -0.6 °C 29.76 in /  1007.7 hPa SW 2.4 mph /  3.9 km/h 4.6 mph /  7.4 km/h 60 % 0.00 in /  0 mm
21:16 43.8 °F /  6.6 °C 31.2 °F /  -0.4 °C 29.76 in /  1007.7 hPa SW 2.6 mph /  4.2 km/h 5.8 mph /  9.3 km/h 61 % 0.00 in /  0 mm
21:21 43.6 °F /  6.4 °C 31.0 °F /  -0.6 °C 29.76 in /  1007.7 hPa SW 1.8 mph /  2.9 km/h 3.5 mph /  5.6 km/h 61 % 0.00 in /  0 mm
21:26 43.4 °F /  6.3 °C 30.8 °F /  -0.7 °C 29.76 in /  1007.7 hPa SW 2.3 mph /  3.7 km/h 5.8 mph /  9.3 km/h 61 % 0.00 in /  0 mm
21:31 43.3 °F /  6.3 °C 30.7 °F /  -0.7 °C 29.77 in /  1008 hPa SSW 1.9 mph /  3.1 km/h 3.0 mph /  4.8 km/h 61 % 0.00 in /  0 mm
21:36 43.0 °F /  6.1 °C 30.9 °F /  -0.6 °C 29.77 in /  1008 hPa SSW 2.3 mph /  3.7 km/h 4.0 mph /  6.4 km/h 62 % 0.00 in /  0 mm
21:41 42.8 °F /  6 °C 30.7 °F /  -0.7 °C 29.77 in /  1008 hPa SSW 2.2 mph /  3.5 km/h 3.5 mph /  5.6 km/h 62 % 0.00 in /  0 mm
21:46 42.6 °F /  5.9 °C 30.5 °F /  -0.8 °C 29.77 in /  1008 hPa SW 1.7 mph /  2.7 km/h 3.5 mph /  5.6 km/h 62 % 0.00 in /  0 mm
21:51 42.3 °F /  5.7 °C 30.6 °F /  -0.8 °C 29.77 in /  1008 hPa SW 2.4 mph /  3.9 km/h 4.0 mph /  6.4 km/h 63 % 0.00 in /  0 mm
21:56 42.1 °F /  5.6 °C 30.4 °F /  -0.9 °C 29.78 in /  1008.4 hPa SW 1.4 mph /  2.3 km/h 3.5 mph /  5.6 km/h 63 % 0.00 in /  0 mm
22:01 41.9 °F /  5.5 °C 30.2 °F /  -1 °C 29.77 in /  1008 hPa SW 2.7 mph /  4.3 km/h 3.5 mph /  5.6 km/h 63 % 0.00 in /  0 mm
22:06 41.7 °F /  5.4 °C 30.4 °F /  -0.9 °C 29.77 in /  1008 hPa SSW 1.8 mph /  2.9 km/h 3.5 mph /  5.6 km/h 64 % 0.00 in /  0 mm
22:11 41.5 °F /  5.3 °C 30.2 °F /  -1 °C 29.77 in /  1008 hPa SSW 2.0 mph /  3.2 km/h 4.0 mph /  6.4 km/h 64 % 0.00 in /  0 mm
22:16 41.4 °F /  5.2 °C 30.1 °F /  -1.1 °C 29.77 in /  1008 hPa SSW 2.0 mph /  3.2 km/h 3.5 mph /  5.6 km/h 64 % 0.00 in /  0 mm
22:22 41.3 °F /  5.2 °C 30.0 °F /  -1.1 °C 29.77 in /  1008 hPa SSW 1.5 mph /  2.4 km/h 3.5 mph /  5.6 km/h 64 % 0.00 in /  0 mm
22:27 41.2 °F /  5.1 °C 30.3 °F /  -0.9 °C 29.77 in /  1008 hPa SW 1.8 mph /  2.9 km/h 3.5 mph /  5.6 km/h 65 % 0.00 in /  0 mm
22:32 41.0 °F /  5 °C 30.1 °F /  -1.1 °C 29.77 in /  1008 hPa SSW 2.5 mph /  4 km/h 3.5 mph /  5.6 km/h 65 % 0.00 in /  0 mm
22:37 40.9 °F /  4.9 °C 30.0 °F /  -1.1 °C 29.78 in /  1008.4 hPa SW 1.4 mph /  2.3 km/h 3.5 mph /  5.6 km/h 65 % 0.00 in /  0 mm
22:42 40.8 °F /  4.9 °C 29.9 °F /  -1.2 °C 29.78 in /  1008.4 hPa SW 2.4 mph /  3.9 km/h 3.5 mph /  5.6 km/h 65 % 0.00 in /  0 mm
22:47 40.7 °F /  4.8 °C 29.8 °F /  -1.2 °C 29.78 in /  1008.4 hPa SW 1.8 mph /  2.9 km/h 3.5 mph /  5.6 km/h 65 % 0.00 in /  0 mm
22:52 40.6 °F /  4.8 °C 30.1 °F /  -1.1 °C 29.78 in /  1008.4 hPa SSW 2.8 mph /  4.5 km/h 4.0 mph /  6.4 km/h 66 % 0.00 in /  0 mm
22:57 40.4 °F /  4.7 °C 29.9 °F /  -1.2 °C 29.79 in /  1008.7 hPa SSW 2.9 mph /  4.7 km/h 3.5 mph /  5.6 km/h 66 % 0.00 in /  0 mm
23:02 40.3 °F /  4.6 °C 29.8 °F /  -1.2 °C 29.78 in /  1008.4 hPa SSW 1.1 mph /  1.8 km/h 3.5 mph /  5.6 km/h 66 % 0.00 in /  0 mm
23:07 40.2 °F /  4.6 °C 30.1 °F /  -1.1 °C 29.78 in /  1008.4 hPa SW 1.3 mph /  2.1 km/h 2.3 mph /  3.7 km/h 67 % 0.00 in /  0 mm
23:12 40.2 °F /  4.6 °C 30.1 °F /  -1.1 °C 29.78 in /  1008.4 hPa SW 0.3 mph /  0.5 km/h 2.3 mph /  3.7 km/h 67 % 0.00 in /  0 mm
23:17 40.1 °F /  4.5 °C 30.0 °F /  -1.1 °C 29.78 in /  1008.4 hPa SW 0.2 mph /  0.3 km/h 1.2 mph /  1.9 km/h 67 % 0.00 in /  0 mm
23:22 40.0 °F /  4.4 °C 29.9 °F /  -1.2 °C 29.78 in /  1008.4 hPa SW 2.7 mph /  4.3 km/h 4.6 mph /  7.4 km/h 67 % 0.00 in /  0 mm
23:27 40.0 °F /  4.4 °C 30.3 °F /  -0.9 °C 29.78 in /  1008.4 hPa SW 1.7 mph /  2.7 km/h 3.5 mph /  5.6 km/h 68 % 0.00 in /  0 mm
23:32 39.9 °F /  4.4 °C 30.2 °F /  -1 °C 29.78 in /  1008.4 hPa SW 1.4 mph /  2.3 km/h 2.3 mph /  3.7 km/h 68 % 0.00 in /  0 mm
23:37 39.9 °F /  4.4 °C 30.2 °F /  -1 °C 29.78 in /  1008.4 hPa SSW 1.5 mph /  2.4 km/h 2.3 mph /  3.7 km/h 68 % 0.00 in /  0 mm
23:42 39.8 °F /  4.3 °C 30.1 °F /  -1.1 °C 29.79 in /  1008.7 hPa SSW 2.0 mph /  3.2 km/h 3.5 mph /  5.6 km/h 68 % 0.00 in /  0 mm
23:47 39.8 °F /  4.3 °C 30.1 °F /  -1.1 °C 29.79 in /  1008.7 hPa WSW 1.8 mph /  2.9 km/h 3.0 mph /  4.8 km/h 68 % 0.00 in /  0 mm
23:52 39.7 °F /  4.3 °C 30.0 °F /  -1.1 °C 29.79 in /  1008.7 hPa SW 2.2 mph /  3.5 km/h 3.5 mph /  5.6 km/h 68 % 0.00 in /  0 mm
23:57 39.7 °F /  4.3 °C 30.0 °F /  -1.1 °C 29.79 in /  1008.7 hPa SW 1.2 mph /  1.9 km/h 3.5 mph /  5.6 km/h 68 % 0.00 in /  0 mm
Crab Meadow Weather
Compliments of Weather Underground - 3 mb

Script developed by  Jim McMurry - jmcmurry@mwt.net Adapted for the template by  Wim van der Kuil - Leuven-Template.eu

Recycling: The U.S. is the #1 trash-producing country in the world at 1,609 pounds per person per year. This means that 5% of the world's people generate 40% of the world's waste.